Terminal Aerodrome Forecast
Issued by NWS Quad Cities IA IL

Home | Current Version | Previous Version | Text Only | Print | Product List | Glossary On
Versions: 1 2 3 4 5 6 7 8 9 10 11 12
000
FTUS43 KDVN 012332
TAFMLI
TAF
KMLI 012332Z 0200/0224 20004KT P6SM SKC
     FM020800 21003KT 4SM BR SKC
     FM021500 21008KT P6SM FEW040 SCT150=

USA.gov is the U.S. government's official web portal to all federal, state and local government web resources and services.